Terminal Aerodrome Forecast
Issued by NWS Midland/Odessa, TX

Home | Current Version | Previous Version | Text Only | Print | Product List | Glossary On
Versions: 1 2 3 4 5 6 7 8 9 10 11 12 13 14 15 16 17 18 19 20 21
000
FTUS44 KMAF 041349 AAA
TAFMAF
TAF AMD
KMAF 041349Z 0414/0512 13006KT P6SM FEW130 BKN200
      TEMPO 0414/0416 OVC019
     FM041800 15011KT P6SM SCT130 SCT200=

USA.gov is the U.S. government's official web portal to all federal, state and local government web resources and services.